Flight Track Log - Related Links

Times and Time Zones

All times are in EDT time to prevent confusion due to time zone crossing. See the GLA91R flight status page for this flight to view local times or setup timezone preferences in your user account.

Time Position Orientation Groundspeed Altitude Reporting Facility
EDT Latitude Longitude Course Direction KTS MPH feet Rate Location/Type
Fri 10:08:00 AM 42.7237 -108.0314 160° South  Level Estimated
Fri 10:08:57 AM 43.0003 -108.4536 177° South 193 222 9,900  Level Denver Center
Fri 10:09:00 AM 42.6668 -107.9605 152° Southeast  Level Estimated
Fri 10:09:56 AM 42.9569 -108.3942 135° Southeast 230 265 11,000  Level Salt Lake Center
Fri 10:10:00 AM 42.5958 -108.0017 203° Southwest  Level FlightAware Approximate
Fri 10:10:58 AM 42.9072 -108.3372 140° Southeast 237 273 12,200  Level Salt Lake Center
Fri 10:11:00 AM 42.5399 -107.9294 154° Southeast  Level Estimated
Fri 10:12:00 AM 42.4634 -107.9433 188° South  Level FlightAware Approximate
Fri 10:12:00 AM 42.8425 -108.2789 147° Southeast 245 282 13,400  Level Salt Lake Center
Fri 10:13:00 AM 42.4083 -107.8700 155° Southeast  Level Estimated
Fri 10:13:01 AM 42.7853 -108.2317 149° Southeast 249 287 14,500  Level Salt Lake Center
Fri 10:14:00 AM 42.3313 -107.8640 177° South  Level FlightAware Approximate
Fri 10:14:03 AM 42.7219 -108.1767 147° Southeast 246 283 15,700  Level Salt Lake Center
Fri 10:15:04 AM 42.6669 -108.1339 150° Southeast 243 280 16,600 829 Climbing Salt Lake Center
Fri 10:16:06 AM 42.6094 -108.0922 152° Southeast 243 280 17,400 726 Climbing Salt Lake Center
Fri 10:17:08 AM 42.5408 -108.0442 153° Southeast 246 283 18,100 732 Climbing Salt Lake Center
Fri 10:18:09 AM 42.4833 -108.0047 153° Southeast 245 282 18,900 829 Climbing Salt Lake Center
Fri 10:19:11 AM 42.4147 -107.9625 156° South 244 281 19,800 774 Climbing Salt Lake Center
Fri 10:20:13 AM 42.3539 -107.9283 157° South 245 282 20,500 774 Climbing Salt Lake Center
Fri 10:21:15 AM 42.2844 -107.8922 159° South 243 280 21,400 732 Climbing Salt Lake Center
Fri 10:22:16 AM 42.2236 -107.8661 162° South 240 276 22,000 683 Climbing Salt Lake Center
Fri 10:23:18 AM 42.1506 -107.8369 164° South 244 281 22,800 677 Climbing Salt Lake Center
Fri 10:24:20 AM 42.0858 -107.8114 164° South 250 288 23,400 629 Climbing Salt Lake Center
Fri 10:25:22 AM 42.0231 -107.7858 163° South 248 285 24,100 581 Climbing Salt Lake Center
Fri 10:26:24 AM 41.9489 -107.7481 159° South 253 291 24,600 439 Climbing Salt Lake Center
Fri 10:27:25 AM 41.8872 -107.7069 154° Southeast 257 296 25,000 195 Climbing Salt Lake Center
Fri 10:28:27 AM 41.8122 -107.6533 152° Southeast 271 312 25,000  Level Salt Lake Center
Fri 10:29:29 AM 41.7672 -107.5706 126° Southeast 293 337 25,000  Level Salt Lake Center
Fri 10:30:31 AM 41.7292 -107.4592 115° Southeast 295 339 25,000  Level Salt Lake Center
Fri 10:31:32 AM 41.6961 -107.3600 114° Southeast 304 350 25,000  Level Salt Lake Center
Fri 10:32:34 AM 41.6694 -107.2578 109° East 306 352 25,000  Level Salt Lake Center
Fri 10:33:36 AM 41.6436 -107.1378 106° East 303 349 25,000  Level Salt Lake Center
Fri 10:34:38 AM 41.6208 -107.0364 107° East 300 345 25,000  Level Salt Lake Center
Fri 10:35:40 AM 41.5961 -106.9178 106° East 297 342 25,000 -195 Level Salt Lake Center
Fri 10:36:41 AM 41.5739 -106.8147 106° East 300 345 24,600 -537 Descending Salt Lake Center
Fri 10:37:43 AM 41.5450 -106.6850 107° East 324 373 23,900 -581 Descending Salt Lake Center
Fri 10:38:45 AM 41.5214 -106.5711 105° East 331 381 23,400 -435 Descending Salt Lake Center
Fri 10:39:47 AM 41.4953 -106.4389 105° East 331 381 23,000 -167 Descending Salt Lake Center
Fri 10:41:09 AM 41.4658 -106.2828 104° East 321 369 23,000 -167 Level Denver Center
Fri 10:42:11 AM 41.4456 -106.1733 104° East 317 365 22,600 -532 Descending Denver Center
Fri 10:43:13 AM 41.4181 -106.0428 106° East 327 376 21,900 -629 Descending Denver Center
Fri 10:44:15 AM 41.3869 -105.9311 110° East 334 384 21,300 -529 Descending Denver Center
Fri 10:45:29 AM 41.3492 -105.8256 115° Southeast 332 382 20,700 -574 Descending Denver Center
Fri 10:46:31 AM 41.2908 -105.6861 119° Southeast 336 387 20,000 -871 Descending Denver Center
Fri 10:47:33 AM 41.2300 -105.5744 126° Southeast 335 386 18,900 -912 Descending Denver Center
Fri 10:48:36 AM 41.1750 -105.4783 127° Southeast 340 391 18,100 -528 Descending Denver Center
Fri 10:49:38 AM 41.1103 -105.3697 128° Southeast 338 389 17,800 -484 Descending Denver Center
Fri 10:50:40 AM 41.0533 -105.2817 131° Southeast 333 383 17,100 -919 Descending Denver Center
Fri 10:51:42 AM 40.9869 -105.1839 132° Southeast 326 375 15,900 -1,500 Descending Denver Center
Fri 10:52:44 AM 40.9242 -105.0989 134° Southeast 329 379 14,000 -1,355 Descending Denver Center
Fri 10:53:46 AM 40.8517 -104.9903 131° Southeast 340 391 13,100 -435 Descending Denver Center
Fri 10:54:48 AM 40.7942 -104.9022 131° Southeast 339 390 13,100 -242 Level Denver Center
Fri 10:55:50 AM 40.7283 -104.8181 136° Southeast 325 374 12,600 -968 Descending Denver Center
Fri 10:56:52 AM 40.6600 -104.7406 139° Southeast 325 374 11,100 -774 Descending Denver Center
Fri 10:57:54 AM 40.5819 -104.6644 143° Southeast 325 374 11,000 -145 Descending Denver Center
Fri 10:58:56 AM 40.5142 -104.6011 145° Southeast 304 350 10,800 -484 Descending Denver Center
Fri 10:59:58 AM 40.4378 -104.5306 145° Southeast 309 356 10,000 -387 Descending Denver Center
Fri 11:01:00 AM 40.3683 -104.4678 145° Southeast 305 351 10,000 -290 Level Denver Center
Fri 11:02:02 AM 40.3003 -104.4069 146° Southeast 298 343 9,400 -435 Descending Denver Center
Fri 11:03:04 AM 40.2269 -104.3414 146° Southeast 297 342 9,100 -145 Descending Denver Center
Fri 11:04:06 AM 40.1678 -104.2856 144° Southeast 273 314 9,100  Level Denver Center
Fri 11:05:20 AM 40.1003 -104.2625 165° South 241 277 9,100  Level Denver Center
Fri 11:06:23 AM 40.0192 -104.2522 174° South 237 273 9,100 -192 Level Denver Center
Fri 11:07:25 AM 39.9625 -104.2400 171° South 213 245 8,700 -484 Descending Denver Center
Fri 11:08:27 AM 39.9089 -104.2181 163° South 194 223 8,100 -339 Descending Denver Center
Fri 11:09:29 AM 39.8808 -104.2694 235° Southwest 181 208 8,000 -44 Descending Denver Center
Fri 11:10:43 AM 39.8769 -104.3317 265° West 174 200 8,000  Level Denver Center
Fri 11:11:46 AM 39.8756 -104.4178 269° West 181 208 8,000 -192 Level Denver Center
Fri 11:12:48 AM 39.8758 -104.4822 270° West 179 206 7,600 -726 Descending Denver Center
Fri 11:13:50 AM 39.8764 -104.5494 271° West 175 201 6,500 -871 Descending Denver Center
Fri 11:14:52 AM 39.8769 -104.6003 271° West 148 170 5,800 -532 Descending Denver Center
Fri 11:15:54 AM 39.8778 -104.6544 271° West 142 163 5,400 -387 Descending Denver Center

Login

Don't have an account? Register now (free) for customized features, flight alerts, and more!